Kaharoa — ZM7552 — position and weather

sailwx.info

Track history (hours):
 
Tides and Currents Weather Stations Pressure Air Temp Water Temp Dewpoint Dewpoint Depression Visibility Wind Speed Wind Dir Waves Ship Positions

Oceanographic research ship Kaharoa (New Zealand)

Detailed information on ship capabilities available from University of Delaware's Ocean Information Center.

Last reported at 2017-Aug-25 07:35 UTC. Time now 2017-Sep-25 11:51 UTC.
Position S 36°35' E 175°08'.
Warning: this ship's position is 31 days out of date.

Length 28 m; draft 3.5 m.

Type: Fishing. MMSI: 512063000.

Date/timePositionNaut miles runAvg speedWind from/ knotsBaromVisibWave heightAir tempDewpointWater temp
2017-Aug-25 07:35S 36°35' E 175°08'1 8.5
2017-Aug-25 07:29S 36°35' E 175°07'4 8.5
2017-Aug-25 07:00S 36°37' E 175°03'4 8.6
2017-Aug-25 06:30S 36°40' E 174°58'5 8.4
2017-Aug-25 05:55S 36°43' E 174°53'6 7.9
2017-Aug-25 05:10S 36°47' E 174°49'2 8.4
2017-Aug-25 04:59S 36°49' E 174°50'3 6.2
2017-Aug-25 04:26S 36°50' E 174°46'0 0.1
2017-Aug-24 20:41S 36°50' E 174°46'4 0.2
2017-Aug-24 03:25S 36°48' E 174°49'17 9.1
2017-Aug-24 01:33S 36°32' E 174°57'0 9.2
2017-Aug-24 01:30S 36°32' E 174°57'5 9.1
2017-Aug-24 01:00S 36°27' E 174°58'4 8.9
2017-Aug-24 00:30S 36°23' E 174°58'4 9.0
2017-Aug-24 00:00S 36°19' E 174°59'21 1.1
2017-Aug-23 04:09S 36°01' E 175°15'7 8.3
2017-Aug-23 03:19S 35°57' E 175°21'0 0.2
2017-Aug-23 00:38S 35°57' E 175°21'0 2.5
2017-Aug-23 00:29S 35°57' E 175°20'16 1.2
2017-Aug-22 10:46S 36°08' E 175°07'0 0.7
2017-Aug-22 10:10S 36°09' E 175°07'1 0.6
2017-Aug-22 07:52S 36°10' E 175°08'0 0.5
2017-Aug-22 07:28S 36°10' E 175°08'0 0.6
2017-Aug-22 06:54S 36°10' E 175°09'1 0.7
2017-Aug-22 05:44S 36°10' E 175°10'0 1.3
2017-Aug-22 05:22S 36°09' E 175°10'3 8.8
2017-Aug-22 04:59S 36°06' E 175°11'4 9.1
2017-Aug-22 04:30S 36°03' E 175°14'8 9.0
2017-Aug-22 03:37S 35°57' E 175°21'0 2.1
2017-Aug-22 03:30S 35°57' E 175°20'0 0.2
2017-Aug-22 00:45S 35°57' E 175°20'1 2.2
2017-Aug-22 00:30S 35°57' E 175°20'5 0.7
2017-Aug-21 17:25S 36°02' E 175°17'5 2.0
2017-Aug-21 15:07S 36°03' E 175°12'1 4.7
2017-Aug-21 14:55S 36°03' E 175°12'0 0.9
2017-Aug-21 14:23S 36°03' E 175°13'2 6.1
2017-Aug-21 14:00S 36°05' E 175°13'1 1.1
2017-Aug-21 13:30S 36°05' E 175°13'3 5.4
2017-Aug-21 12:59S 36°02' E 175°14'1 0.3
2017-Aug-21 10:26S 36°01' E 175°14'16 2.5
2017-Aug-21 03:58S 36°14' E 175°01'2 3.1
2017-Aug-21 03:28S 36°15' E 175°01'2 3.4
2017-Aug-21 02:59S 36°17' E 175°00'3 6.9
2017-Aug-21 02:30S 36°20' E 175°00'4 9.0
2017-Aug-21 02:00S 36°25' E 174°59'5 9.4
2017-Aug-21 01:30S 36°29' E 174°58'5 9.5
2017-Aug-21 01:00S 36°34' E 174°57'5 9.6
2017-Aug-21 00:30S 36°39' E 174°55'11 9.2
2017-Aug-20 23:21S 36°48' E 174°49'3 7.2
2017-Aug-20 22:58S 36°50' E 174°47'1 0.2
2017-Aug-20 17:11S 36°50' E 174°46'0 0.0
2017-Aug-20 16:11S 36°50' E 174°46'0 0.0
2017-Aug-20 15:47S 36°50' E 174°46'0 0.0
2017-Aug-20 15:23S 36°50' E 174°46'0 0.0
2017-Aug-20 12:35S 36°50' E 174°46'0 0.0
2017-Aug-20 12:18S 36°50' E 174°46'1 2.8
2017-Aug-20 12:00S 36°50' E 174°47'3 5.9
2017-Aug-20 11:30S 36°48' E 174°49'4 7.6
2017-Aug-20 11:00S 36°45' E 174°50'5 9.1
2017-Aug-20 10:31S 36°41' E 174°54'5 9.0
2017-Aug-20 10:00S 36°37' E 174°57'4 8.9
2017-Aug-20 09:31S 36°33' E 174°58'4 8.8
2017-Aug-20 09:01S 36°29' E 174°59'4 8.7
2017-Aug-20 08:31S 36°24' E 174°59'4 8.8
2017-Aug-20 08:01S 36°20' E 174°60'4 8.9
2017-Aug-20 07:30S 36°15' E 175°00'15 4.6
2017-Aug-20 04:15S 36°05' E 175°14'1 3.2
2017-Aug-20 03:59S 36°05' E 175°14'2 3.1
2017-Aug-20 03:30S 36°03' E 175°14'1 1.3
2017-Aug-20 03:01S 36°02' E 175°14'3 2.7
2017-Aug-20 02:05S 36°05' E 175°15'0 3.2
2017-Aug-20 01:58S 36°05' E 175°15'2 3.2
2017-Aug-20 01:30S 36°03' E 175°14'3 1.0
2017-Aug-19 22:57S 36°05' E 175°12'1 0.2
2017-Aug-19 20:09S 36°05' E 175°12'0 1.7
2017-Aug-19 20:00S 36°05' E 175°11'3 1.0
2017-Aug-19 17:09S 36°06' E 175°09'1 3.0
2017-Aug-19 16:57S 36°07' E 175°09'6 3.3
2017-Aug-19 15:13S 36°12' E 175°07'1 2.9
2017-Aug-19 15:01S 36°13' E 175°07'2 2.0
2017-Aug-19 14:00S 36°14' E 175°05'1 2.0
2017-Aug-19 13:30S 36°15' E 175°06'0 0.6
2017-Aug-19 13:00S 36°15' E 175°06'0 0.6
2017-Aug-19 12:30S 36°14' E 175°06'0 0.5
2017-Aug-19 12:00S 36°14' E 175°06'0 0.5
2017-Aug-19 11:30S 36°14' E 175°06'0 0.8
2017-Aug-19 11:00S 36°14' E 175°05'0 0.9
2017-Aug-19 10:30S 36°14' E 175°05'0 0.8
2017-Aug-19 10:00S 36°14' E 175°05'0 0.8
2017-Aug-19 09:29S 36°14' E 175°06'2 3.6
2017-Aug-19 09:00S 36°14' E 175°08'1 1.1
2017-Aug-19 08:30S 36°13' E 175°08'0 0.4
2017-Aug-19 07:27S 36°13' E 175°07'2 4.7
2017-Aug-19 07:01S 36°16' E 175°08'0 0.6
2017-Aug-19 06:31S 36°16' E 175°07'0 0.6
2017-Aug-19 05:50S 36°16' E 175°07'1 2.1
2017-Aug-19 05:30S 36°15' E 175°07'3 4.7
2017-Aug-19 04:50S 36°13' E 175°10'8 6.0
2017-Aug-19 03:27S 36°05' E 175°14'1 3.2
2017-Aug-19 03:01S 36°04' E 175°14'2 3.6
2017-Aug-19 02:30S 36°02' E 175°14'2 4.0
2017-Aug-19 01:59S 36°04' E 175°14'1 1.0
2017-Aug-19 01:07S 36°05' E 175°15'0 3.4
2017-Aug-19 01:00S 36°04' E 175°15'2 3.3
2017-Aug-19 00:29S 36°03' E 175°15'2 1.8
2017-Aug-18 23:17S 36°03' E 175°12'1 2.4
2017-Aug-18 23:00S 36°04' E 175°12'1 2.3
2017-Aug-18 22:29S 36°05' E 175°12'1 0.5
2017-Aug-18 20:37S 36°04' E 175°12'0 2.2
2017-Aug-18 20:29S 36°04' E 175°12'1 2.0
2017-Aug-18 20:00S 36°05' E 175°12'2 1.1
2017-Aug-18 17:45S 36°03' E 175°13'2 6.7
2017-Aug-18 17:30S 36°04' E 175°11'3 5.6
2017-Aug-18 17:01S 36°06' E 175°09'2 4.1
2017-Aug-18 16:30S 36°08' E 175°09'2 4.0
2017-Aug-18 16:00S 36°10' E 175°08'2 3.9
2017-Aug-18 15:29S 36°12' E 175°08'3 5.4
2017-Aug-18 15:00S 36°15' E 175°07'6 6.2
2017-Aug-18 14:00S 36°21' E 175°06'3 6.2
2017-Aug-18 13:31S 36°24' E 175°05'3 6.0
2017-Aug-18 13:00S 36°26' E 175°04'3 5.5
2017-Aug-18 12:31S 36°29' E 175°03'3 5.0
2017-Aug-18 11:59S 36°31' E 175°01'3 5.8
2017-Aug-18 11:31S 36°34' E 174°60'4 7.6
2017-Aug-18 11:01S 36°37' E 174°57'5 8.8
2017-Aug-18 10:27S 36°41' E 174°54'5 8.9
2017-Aug-18 09:52S 36°45' E 174°50'3 7.5
2017-Aug-18 09:31S 36°48' E 174°49'3 6.2
2017-Aug-18 08:59S 36°50' E 174°46'1 0.1
2017-Aug-17 23:44S 36°50' E 174°46'3 7.5
2017-Aug-17 23:18S 36°50' E 174°49'3 8.7
2017-Aug-17 22:58S 36°47' E 174°48'4 9.5
2017-Aug-17 22:30S 36°43' E 174°50'5 9.3
2017-Aug-17 22:00S 36°38' E 174°51'5 9.1
2017-Aug-17 21:30S 36°34' E 174°53'3 6.8
2017-Aug-17 21:00S 36°31' E 174°56'0 0.2
2017-Aug-17 20:30S 36°31' E 174°55'0 0.4
2017-Aug-17 19:57S 36°31' E 174°55'0 0.4
2017-Aug-17 19:25S 36°32' E 174°55'0 0.5
2017-Aug-17 19:00S 36°32' E 174°55'3 6.7
2017-Aug-17 18:30S 36°33' E 174°51'2 4.8
2017-Aug-17 18:00S 36°33' E 174°48'0 0.7
2017-Aug-17 17:30S 36°33' E 174°48'0 0.6
2017-Aug-17 17:00S 36°33' E 174°48'0 0.6
2017-Aug-17 16:30S 36°33' E 174°49'1 1.4
2017-Aug-17 16:00S 36°32' E 174°48'1 1.4
2017-Aug-17 15:30S 36°32' E 174°47'0 0.9
2017-Aug-17 15:00S 36°32' E 174°47'1 1.0
2017-Aug-17 14:30S 36°33' E 174°48'0 0.9
2017-Aug-17 14:00S 36°33' E 174°48'0 0.4
2017-Aug-17 13:30S 36°33' E 174°49'0 0.5
2017-Aug-17 13:00S 36°33' E 174°49'1 1.6
2017-Aug-17 12:30S 36°33' E 174°50'1 1.6
2017-Aug-17 12:00S 36°32' E 174°51'1 2.3
2017-Aug-17 11:30S 36°32' E 174°52'1 2.3
2017-Aug-17 11:00S 36°31' E 174°53'1 2.5
2017-Aug-17 10:30S 36°31' E 174°55'1 2.4
2017-Aug-17 10:00S 36°30' E 174°56'1 2.3
2017-Aug-17 09:30S 36°29' E 174°57'2 4.6
2017-Aug-17 09:00S 36°27' E 174°59'3 6.8
2017-Aug-17 08:30S 36°24' E 175°00'3 6.7
2017-Aug-17 08:00S 36°21' E 175°01'3 6.3
2017-Aug-17 07:30S 36°18' E 175°03'3 6.4
2017-Aug-17 07:00S 36°16' E 175°06'3 1.8
2017-Aug-17 05:23S 36°15' E 175°09'3 6.6
2017-Aug-17 04:52S 36°12' E 175°11'6 2.4
2017-Aug-17 02:34S 36°06' E 175°13'0 2.8
2017-Aug-17 02:29S 36°06' E 175°13'2 3.1
2017-Aug-17 02:00S 36°06' E 175°11'1 0.7
2017-Aug-17 00:00S 36°07' E 175°13'2 3.2
2017-Aug-16 23:30S 36°06' E 175°11'4 2.3
2017-Aug-16 21:38S 36°04' E 175°15'1 3.3
2017-Aug-16 21:29S 36°04' E 175°16'2 3.6
2017-Aug-16 20:59S 36°02' E 175°16'4 4.7
2017-Aug-16 20:08S 36°06' E 175°16'2 3.0
2017-Aug-16 19:19S 36°04' E 175°16'1 3.2
2017-Aug-16 18:59S 36°03' E 175°17'1 1.0
2017-Aug-16 18:22S 36°02' E 175°16'1 3.5
2017-Aug-16 18:00S 36°03' E 175°16'1 1.4
2017-Aug-16 17:30S 36°03' E 175°16'1 2.8
2017-Aug-16 17:00S 36°01' E 175°16'1 1.0
2017-Aug-16 16:29S 36°01' E 175°16'1 2.4
2017-Aug-16 15:59S 36°03' E 175°15'1 2.6
2017-Aug-16 15:29S 36°04' E 175°15'5 2.4
2017-Aug-16 13:16S 36°09' E 175°13'1 3.0
2017-Aug-16 13:00S 36°08' E 175°13'2 2.9
2017-Aug-16 12:10S 36°06' E 175°14'0 3.0
2017-Aug-16 12:00S 36°05' E 175°14'1 2.9
2017-Aug-16 11:30S 36°04' E 175°14'1 2.7
2017-Aug-16 11:00S 36°02' E 175°15'1 2.9
2017-Aug-16 10:30S 36°01' E 175°15'6 0.7
2017-Aug-16 01:07S 36°07' E 175°12'0 3.0
2017-Aug-16 01:00S 36°07' E 175°12'2 3.2
2017-Aug-16 00:30S 36°06' E 175°10'5 2.4
2017-Aug-15 22:16S 36°04' E 175°16'1 3.2
2017-Aug-15 22:00S 36°03' E 175°16'1 1.3
2017-Aug-15 21:30S 36°03' E 175°15'1 0.5
2017-Aug-15 19:06S 36°03' E 175°17'1 3.5
2017-Aug-15 18:57S 36°02' E 175°17'0 0.7
2017-Aug-15 18:25S 36°02' E 175°17'4 9.3
2017-Aug-15 17:58S 36°06' E 175°15'4 9.6
2017-Aug-15 17:30S 36°10' E 175°13'910.2
2017-Aug-15 16:40S 36°18' E 175°08'210.2
2017-Aug-15 16:30S 36°19' E 175°07'510.0
2017-Aug-15 16:00S 36°24' E 175°04'5 9.9
2017-Aug-15 15:30S 36°28' E 175°02'510.0
2017-Aug-15 15:00S 36°33' E 174°59'5 9.7
2017-Aug-15 14:30S 36°37' E 174°57'5 9.7
2017-Aug-15 14:00S 36°41' E 174°53'7 9.3
2017-Aug-15 13:15S 36°47' E 174°48'2 8.8
2017-Aug-15 13:01S 36°49' E 174°50'4 7.0
2017-Aug-15 12:30S 36°50' E 174°46'0 0.6
2017-Aug-15 11:57S 36°50' E 174°46'0 0.0
2017-Aug-15 11:11S 36°50' E 174°46'0 0.0
2017-Aug-15 10:59S 36°50' E 174°46'3 5.9
2017-Aug-15 10:27S 36°50' E 174°49'4 9.1
2017-Aug-15 10:00S 36°46' E 174°49'5 9.6
2017-Aug-15 09:27S 36°42' E 174°54'4 9.4
2017-Aug-15 09:00S 36°40' E 174°59'5 9.3
2017-Aug-15 08:30S 36°37' E 175°03'5 9.4
2017-Aug-15 08:00S 36°34' E 175°08'  
Track history (hours):
 
Tides and Currents Weather Stations Pressure Air Temp Water Temp Dewpoint Dewpoint Depression Visibility Wind Speed Wind Dir Waves Ship Positions

Oceanographic research ship Kaharoa (New Zealand)

Detailed information on ship capabilities available from University of Delaware's Ocean Information Center.

Last reported at 2017-Aug-25 07:35 UTC. Time now 2017-Sep-25 11:51 UTC.
Position S 36°35' E 175°08'.
Warning: this ship's position is 31 days out of date.

Length 28 m; draft 3.5 m.

Type: Fishing. MMSI: 512063000.

Date/timePositionNaut miles runAvg speedWind from/ knotsBaromVisibWave heightAir tempDewpointWater temp
2017-Aug-25 07:35S 36°35' E 175°08'1 8.5
2017-Aug-25 07:29S 36°35' E 175°07'4 8.5
2017-Aug-25 07:00S 36°37' E 175°03'4 8.6
2017-Aug-25 06:30S 36°40' E 174°58'5 8.4
2017-Aug-25 05:55S 36°43' E 174°53'6 7.9
2017-Aug-25 05:10S 36°47' E 174°49'2 8.4
2017-Aug-25 04:59S 36°49' E 174°50'3 6.2
2017-Aug-25 04:26S 36°50' E 174°46'0 0.1
2017-Aug-24 20:41S 36°50' E 174°46'4 0.2
2017-Aug-24 03:25S 36°48' E 174°49'17 9.1
2017-Aug-24 01:33S 36°32' E 174°57'0 9.2
2017-Aug-24 01:30S 36°32' E 174°57'5 9.1
2017-Aug-24 01:00S 36°27' E 174°58'4 8.9
2017-Aug-24 00:30S 36°23' E 174°58'4 9.0
2017-Aug-24 00:00S 36°19' E 174°59'21 1.1
2017-Aug-23 04:09S 36°01' E 175°15'7 8.3
2017-Aug-23 03:19S 35°57' E 175°21'0 0.2
2017-Aug-23 00:38S 35°57' E 175°21'0 2.5
2017-Aug-23 00:29S 35°57' E 175°20'16 1.2
2017-Aug-22 10:46S 36°08' E 175°07'0 0.7
2017-Aug-22 10:10S 36°09' E 175°07'1 0.6
2017-Aug-22 07:52S 36°10' E 175°08'0 0.5
2017-Aug-22 07:28S 36°10' E 175°08'0 0.6
2017-Aug-22 06:54S 36°10' E 175°09'1 0.7
2017-Aug-22 05:44S 36°10' E 175°10'0 1.3
2017-Aug-22 05:22S 36°09' E 175°10'3 8.8
2017-Aug-22 04:59S 36°06' E 175°11'4 9.1
2017-Aug-22 04:30S 36°03' E 175°14'8 9.0
2017-Aug-22 03:37S 35°57' E 175°21'0 2.1
2017-Aug-22 03:30S 35°57' E 175°20'0 0.2
2017-Aug-22 00:45S 35°57' E 175°20'1 2.2
2017-Aug-22 00:30S 35°57' E 175°20'5 0.7
2017-Aug-21 17:25S 36°02' E 175°17'5 2.0
2017-Aug-21 15:07S 36°03' E 175°12'1 4.7
2017-Aug-21 14:55S 36°03' E 175°12'0 0.9
2017-Aug-21 14:23S 36°03' E 175°13'2 6.1
2017-Aug-21 14:00S 36°05' E 175°13'1 1.1
2017-Aug-21 13:30S 36°05' E 175°13'3 5.4
2017-Aug-21 12:59S 36°02' E 175°14'1 0.3
2017-Aug-21 10:26S 36°01' E 175°14'16 2.5
2017-Aug-21 03:58S 36°14' E 175°01'2 3.1
2017-Aug-21 03:28S 36°15' E 175°01'2 3.4
2017-Aug-21 02:59S 36°17' E 175°00'3 6.9
2017-Aug-21 02:30S 36°20' E 175°00'4 9.0
2017-Aug-21 02:00S 36°25' E 174°59'5 9.4
2017-Aug-21 01:30S 36°29' E 174°58'5 9.5
2017-Aug-21 01:00S 36°34' E 174°57'5 9.6
2017-Aug-21 00:30S 36°39' E 174°55'11 9.2
2017-Aug-20 23:21S 36°48' E 174°49'3 7.2
2017-Aug-20 22:58S 36°50' E 174°47'1 0.2
2017-Aug-20 17:11S 36°50' E 174°46'0 0.0
2017-Aug-20 16:11S 36°50' E 174°46'0 0.0
2017-Aug-20 15:47S 36°50' E 174°46'0 0.0
2017-Aug-20 15:23S 36°50' E 174°46'0 0.0
2017-Aug-20 12:35S 36°50' E 174°46'0 0.0
2017-Aug-20 12:18S 36°50' E 174°46'1 2.8
2017-Aug-20 12:00S 36°50' E 174°47'3 5.9
2017-Aug-20 11:30S 36°48' E 174°49'4 7.6
2017-Aug-20 11:00S 36°45' E 174°50'5 9.1
2017-Aug-20 10:31S 36°41' E 174°54'5 9.0
2017-Aug-20 10:00S 36°37' E 174°57'4 8.9
2017-Aug-20 09:31S 36°33' E 174°58'4 8.8
2017-Aug-20 09:01S 36°29' E 174°59'4 8.7
2017-Aug-20 08:31S 36°24' E 174°59'4 8.8
2017-Aug-20 08:01S 36°20' E 174°60'4 8.9
2017-Aug-20 07:30S 36°15' E 175°00'15 4.6
2017-Aug-20 04:15S 36°05' E 175°14'1 3.2
2017-Aug-20 03:59S 36°05' E 175°14'2 3.1
2017-Aug-20 03:30S 36°03' E 175°14'1 1.3
2017-Aug-20 03:01S 36°02' E 175°14'3 2.7
2017-Aug-20 02:05S 36°05' E 175°15'0 3.2
2017-Aug-20 01:58S 36°05' E 175°15'2 3.2
2017-Aug-20 01:30S 36°03' E 175°14'3 1.0
2017-Aug-19 22:57S 36°05' E 175°12'1 0.2
2017-Aug-19 20:09S 36°05' E 175°12'0 1.7
2017-Aug-19 20:00S 36°05' E 175°11'3 1.0
2017-Aug-19 17:09S 36°06' E 175°09'1 3.0
2017-Aug-19 16:57S 36°07' E 175°09'6 3.3
2017-Aug-19 15:13S 36°12' E 175°07'1 2.9
2017-Aug-19 15:01S 36°13' E 175°07'2 2.0
2017-Aug-19 14:00S 36°14' E 175°05'1 2.0
2017-Aug-19 13:30S 36°15' E 175°06'0 0.6
2017-Aug-19 13:00S 36°15' E 175°06'0 0.6
2017-Aug-19 12:30S 36°14' E 175°06'0 0.5
2017-Aug-19 12:00S 36°14' E 175°06'0 0.5
2017-Aug-19 11:30S 36°14' E 175°06'0 0.8
2017-Aug-19 11:00S 36°14' E 175°05'0 0.9
2017-Aug-19 10:30S 36°14' E 175°05'0 0.8
2017-Aug-19 10:00S 36°14' E 175°05'0 0.8
2017-Aug-19 09:29S 36°14' E 175°06'2 3.6
2017-Aug-19 09:00S 36°14' E 175°08'1 1.1
2017-Aug-19 08:30S 36°13' E 175°08'0 0.4
2017-Aug-19 07:27S 36°13' E 175°07'2 4.7
2017-Aug-19 07:01S 36°16' E 175°08'0 0.6
2017-Aug-19 06:31S 36°16' E 175°07'0 0.6
2017-Aug-19 05:50S 36°16' E 175°07'1 2.1
2017-Aug-19 05:30S 36°15' E 175°07'3 4.7
2017-Aug-19 04:50S 36°13' E 175°10'8 6.0
2017-Aug-19 03:27S 36°05' E 175°14'1 3.2
2017-Aug-19 03:01S 36°04' E 175°14'2 3.6
2017-Aug-19 02:30S 36°02' E 175°14'2 4.0
2017-Aug-19 01:59S 36°04' E 175°14'1 1.0
2017-Aug-19 01:07S 36°05' E 175°15'0 3.4
2017-Aug-19 01:00S 36°04' E 175°15'2 3.3
2017-Aug-19 00:29S 36°03' E 175°15'2 1.8
2017-Aug-18 23:17S 36°03' E 175°12'1 2.4
2017-Aug-18 23:00S 36°04' E 175°12'1 2.3
2017-Aug-18 22:29S 36°05' E 175°12'1 0.5
2017-Aug-18 20:37S 36°04' E 175°12'0 2.2
2017-Aug-18 20:29S 36°04' E 175°12'1 2.0
2017-Aug-18 20:00S 36°05' E 175°12'2 1.1
2017-Aug-18 17:45S 36°03' E 175°13'2 6.7
2017-Aug-18 17:30S 36°04' E 175°11'3 5.6
2017-Aug-18 17:01S 36°06' E 175°09'2 4.1
2017-Aug-18 16:30S 36°08' E 175°09'2 4.0
2017-Aug-18 16:00S 36°10' E 175°08'2 3.9
2017-Aug-18 15:29S 36°12' E 175°08'3 5.4
2017-Aug-18 15:00S 36°15' E 175°07'6 6.2
2017-Aug-18 14:00S 36°21' E 175°06'3 6.2
2017-Aug-18 13:31S 36°24' E 175°05'3 6.0
2017-Aug-18 13:00S 36°26' E 175°04'3 5.5
2017-Aug-18 12:31S 36°29' E 175°03'3 5.0
2017-Aug-18 11:59S 36°31' E 175°01'3 5.8
2017-Aug-18 11:31S 36°34' E 174°60'4 7.6
2017-Aug-18 11:01S 36°37' E 174°57'5 8.8
2017-Aug-18 10:27S 36°41' E 174°54'5 8.9
2017-Aug-18 09:52S 36°45' E 174°50'3 7.5
2017-Aug-18 09:31S 36°48' E 174°49'3 6.2
2017-Aug-18 08:59S 36°50' E 174°46'1 0.1
2017-Aug-17 23:44S 36°50' E 174°46'3 7.5
2017-Aug-17 23:18S 36°50' E 174°49'3 8.7
2017-Aug-17 22:58S 36°47' E 174°48'4 9.5
2017-Aug-17 22:30S 36°43' E 174°50'5 9.3
2017-Aug-17 22:00S 36°38' E 174°51'5 9.1
2017-Aug-17 21:30S 36°34' E 174°53'3 6.8
2017-Aug-17 21:00S 36°31' E 174°56'0 0.2
2017-Aug-17 20:30S 36°31' E 174°55'0 0.4
2017-Aug-17 19:57S 36°31' E 174°55'0 0.4
2017-Aug-17 19:25S 36°32' E 174°55'0 0.5
2017-Aug-17 19:00S 36°32' E 174°55'3 6.7
2017-Aug-17 18:30S 36°33' E 174°51'2 4.8
2017-Aug-17 18:00S 36°33' E 174°48'0 0.7
2017-Aug-17 17:30S 36°33' E 174°48'0 0.6
2017-Aug-17 17:00S 36°33' E 174°48'0 0.6
2017-Aug-17 16:30S 36°33' E 174°49'1 1.4
2017-Aug-17 16:00S 36°32' E 174°48'1 1.4
2017-Aug-17 15:30S 36°32' E 174°47'0 0.9
2017-Aug-17 15:00S 36°32' E 174°47'1 1.0
2017-Aug-17 14:30S 36°33' E 174°48'0 0.9
2017-Aug-17 14:00S 36°33' E 174°48'0 0.4
2017-Aug-17 13:30S 36°33' E 174°49'0 0.5
2017-Aug-17 13:00S 36°33' E 174°49'1 1.6
2017-Aug-17 12:30S 36°33' E 174°50'1 1.6
2017-Aug-17 12:00S 36°32' E 174°51'1 2.3
2017-Aug-17 11:30S 36°32' E 174°52'1 2.3
2017-Aug-17 11:00S 36°31' E 174°53'1 2.5
2017-Aug-17 10:30S 36°31' E 174°55'1 2.4
2017-Aug-17 10:00S 36°30' E 174°56'1 2.3
2017-Aug-17 09:30S 36°29' E 174°57'2 4.6
2017-Aug-17 09:00S 36°27' E 174°59'3 6.8
2017-Aug-17 08:30S 36°24' E 175°00'3 6.7
2017-Aug-17 08:00S 36°21' E 175°01'3 6.3
2017-Aug-17 07:30S 36°18' E 175°03'3 6.4
2017-Aug-17 07:00S 36°16' E 175°06'3 1.8
2017-Aug-17 05:23S 36°15' E 175°09'3 6.6
2017-Aug-17 04:52S 36°12' E 175°11'6 2.4
2017-Aug-17 02:34S 36°06' E 175°13'0 2.8
2017-Aug-17 02:29S 36°06' E 175°13'2 3.1
2017-Aug-17 02:00S 36°06' E 175°11'1 0.7
2017-Aug-17 00:00S 36°07' E 175°13'2 3.2
2017-Aug-16 23:30S 36°06' E 175°11'4 2.3
2017-Aug-16 21:38S 36°04' E 175°15'1 3.3
2017-Aug-16 21:29S 36°04' E 175°16'2 3.6
2017-Aug-16 20:59S 36°02' E 175°16'4 4.7
2017-Aug-16 20:08S 36°06' E 175°16'2 3.0
2017-Aug-16 19:19S 36°04' E 175°16'1 3.2
2017-Aug-16 18:59S 36°03' E 175°17'1 1.0
2017-Aug-16 18:22S 36°02' E 175°16'1 3.5
2017-Aug-16 18:00S 36°03' E 175°16'1 1.4
2017-Aug-16 17:30S 36°03' E 175°16'1 2.8
2017-Aug-16 17:00S 36°01' E 175°16'1 1.0
2017-Aug-16 16:29S 36°01' E 175°16'1 2.4
2017-Aug-16 15:59S 36°03' E 175°15'1 2.6
2017-Aug-16 15:29S 36°04' E 175°15'5 2.4
2017-Aug-16 13:16S 36°09' E 175°13'1 3.0
2017-Aug-16 13:00S 36°08' E 175°13'2 2.9
2017-Aug-16 12:10S 36°06' E 175°14'0 3.0
2017-Aug-16 12:00S 36°05' E 175°14'1 2.9
2017-Aug-16 11:30S 36°04' E 175°14'1 2.7
2017-Aug-16 11:00S 36°02' E 175°15'1 2.9
2017-Aug-16 10:30S 36°01' E 175°15'6 0.7
2017-Aug-16 01:07S 36°07' E 175°12'0 3.0
2017-Aug-16 01:00S 36°07' E 175°12'2 3.2
2017-Aug-16 00:30S 36°06' E 175°10'5 2.4
2017-Aug-15 22:16S 36°04' E 175°16'1 3.2
2017-Aug-15 22:00S 36°03' E 175°16'1 1.3
2017-Aug-15 21:30S 36°03' E 175°15'1 0.5
2017-Aug-15 19:06S 36°03' E 175°17'1 3.5
2017-Aug-15 18:57S 36°02' E 175°17'0 0.7
2017-Aug-15 18:25S 36°02' E 175°17'4 9.3
2017-Aug-15 17:58S 36°06' E 175°15'4 9.6
2017-Aug-15 17:30S 36°10' E 175°13'910.2
2017-Aug-15 16:40S 36°18' E 175°08'210.2
2017-Aug-15 16:30S 36°19' E 175°07'510.0
2017-Aug-15 16:00S 36°24' E 175°04'5 9.9
2017-Aug-15 15:30S 36°28' E 175°02'510.0
2017-Aug-15 15:00S 36°33' E 174°59'5 9.7
2017-Aug-15 14:30S 36°37' E 174°57'5 9.7
2017-Aug-15 14:00S 36°41' E 174°53'7 9.3
2017-Aug-15 13:15S 36°47' E 174°48'2 8.8
2017-Aug-15 13:01S 36°49' E 174°50'4 7.0
2017-Aug-15 12:30S 36°50' E 174°46'0 0.6
2017-Aug-15 11:57S 36°50' E 174°46'0 0.0
2017-Aug-15 11:11S 36°50' E 174°46'0 0.0
2017-Aug-15 10:59S 36°50' E 174°46'3 5.9
2017-Aug-15 10:27S 36°50' E 174°49'4 9.1
2017-Aug-15 10:00S 36°46' E 174°49'5 9.6
2017-Aug-15 09:27S 36°42' E 174°54'4 9.4
2017-Aug-15 09:00S 36°40' E 174°59'5 9.3
2017-Aug-15 08:30S 36°37' E 175°03'5 9.4
2017-Aug-15 08:00S 36°34' E 175°08'  

Dump ship's entire track history